Time;durP1;ratioP1;P1;durP2;ratioP2;P2;SDS_P1;SDS_P2;PMS_P1;PMS_P2;Temp;Humidity;BMP_temperature;BMP_pressure;BME280_temperature;BME280_humidity;BME280_pressure;Samples;Min_cycle;Max_cycle;Signal;HPM_P1;HPM_P2
2021/04/30 00:00:30;;;;;;;13.25;10.23;;;;;;;6.23;86.23;92449.53;2099393;28;20029;-84
2021/04/30 00:01:31;;;;;;;14.02;10.13;;;;;;;6.23;85.71;92441.56;2089869;28;20777;-85
2021/04/30 00:02:32;;;;;;;14.10;10.50;;;;;;;6.15;80.88;92444.75;2105472;28;20027;-84
2021/04/30 00:03:33;;;;;;;13.85;11.25;;;;;;;6.13;80.31;92442.47;2115144;28;20039;-84
2021/04/30 00:04:33;;;;;;;14.45;11.07;;;;;;;6.18;83.13;92443.94;2102007;28;20022;-83
2021/04/30 00:05:34;;;;;;;14.70;11.65;;;;;;;6.23;84.93;92446.13;2094781;28;20028;-82
2021/04/30 00:06:35;;;;;;;16.92;11.50;;;;;;;6.28;80.96;92451.72;2081734;28;20029;-84
2021/04/30 00:07:35;;;;;;;15.23;9.63;;;;;;;6.46;82.16;92456.00;2089911;28;20025;-85
2021/04/30 00:08:37;;;;;;;14.68;9.07;;;;;;;6.26;82.99;92450.63;2089850;28;20564;-83
2021/04/30 00:09:39;;;;;;;14.45;9.05;;;;;;;6.20;83.28;92450.34;2089739;28;20078;-84
2021/04/30 00:10:41;;;;;;;13.43;9.35;;;;;;;6.25;83.60;92444.56;2090019;28;20025;-84
2021/04/30 00:11:42;;;;;;;17.25;9.23;;;;;;;6.23;83.79;92448.75;2090138;28;20028;-84
2021/04/30 00:12:42;;;;;;;10.27;9.18;;;;;;;6.19;84.49;92442.75;2090778;28;20477;-84
2021/04/30 00:13:43;;;;;;;14.25;9.07;;;;;;;6.20;84.11;92446.94;2097988;28;20028;-84
2021/04/30 00:14:44;;;;;;;11.77;8.90;;;;;;;6.17;83.93;92450.38;2098215;28;20051;-84
2021/04/30 00:15:45;;;;;;;12.40;9.23;;;;;;;6.19;84.50;92456.81;2106505;28;20020;-83
2021/04/30 00:16:48;;;;;;;13.73;9.82;;;;;;;6.15;85.14;92461.41;2117489;27;20111;-83
2021/04/30 00:17:49;;;;;;;15.60;9.65;;;;;;;6.15;85.20;92455.38;2098203;28;20642;-83
2021/04/30 00:18:50;;;;;;;13.65;9.52;;;;;;;6.04;85.73;92460.81;2089519;28;20030;-83
2021/04/30 00:19:50;;;;;;;13.25;10.00;;;;;;;6.07;84.03;92456.63;2098140;28;20122;-83
2021/04/30 00:20:56;;;;;;;12.60;11.00;;;;;;;6.04;82.57;92464.22;2106340;28;20027;-83
2021/04/30 00:21:56;;;;;;;14.73;10.55;;;;;;;6.05;85.16;92457.00;2092449;28;20027;-84
2021/04/30 00:22:57;;;;;;;11.88;8.98;;;;;;;6.07;85.20;92464.59;2089955;28;20025;-83
2021/04/30 00:23:59;;;;;;;10.85;9.07;;;;;;;5.99;86.07;92461.28;2112484;27;20051;-83
2021/04/30 00:25:00;;;;;;;9.82;8.70;;;;;;;6.00;85.67;92460.88;2102372;28;20495;-84
2021/04/30 00:26:03;;;;;;;11.85;8.93;;;;;;;5.99;86.13;92451.41;2106459;28;20147;-84
2021/04/30 00:27:04;;;;;;;13.15;9.52;;;;;;;6.02;85.93;92439.25;2103265;28;20024;-84
2021/04/30 00:28:05;;;;;;;12.65;9.45;;;;;;;6.01;86.10;92451.78;2096453;28;20127;-83
2021/04/30 00:29:06;;;;;;;16.00;9.40;;;;;;;5.99;86.39;92448.00;2106414;28;20476;-84
2021/04/30 00:30:08;;;;;;;12.73;9.95;;;;;;;5.96;84.73;92448.81;2106395;28;20118;-84
2021/04/30 00:31:08;;;;;;;13.73;10.10;;;;;;;5.98;84.54;92452.56;2097919;28;20031;-84
2021/04/30 00:32:11;;;;;;;18.42;10.75;;;;;;;5.94;84.06;92451.88;2098090;28;20543;-85
2021/04/30 00:33:12;;;;;;;20.27;10.90;;;;;;;5.99;85.10;92448.75;2089633;28;20091;-83
2021/04/30 00:34:12;;;;;;;13.93;10.68;;;;;;;6.13;83.06;92455.75;2080634;28;20104;-83
2021/04/30 00:35:13;;;;;;;14.95;11.82;;;;;;;6.11;81.77;92455.41;2089787;28;20501;-83
2021/04/30 00:36:14;;;;;;;13.82;11.15;;;;;;;6.11;81.09;92462.63;2099243;28;20091;-83
2021/04/30 00:37:15;;;;;;;16.23;11.45;;;;;;;6.13;82.71;92463.72;2109793;28;20036;-83
2021/04/30 00:38:16;;;;;;;16.33;10.98;;;;;;;6.07;83.05;92467.25;2097951;28;20040;-83
2021/04/30 00:39:16;;;;;;;17.00;10.35;;;;;;;6.05;83.71;92459.66;2098849;28;20032;-84
2021/04/30 00:40:17;;;;;;;12.80;10.68;;;;;;;6.07;83.05;92467.97;2106073;28;20592;-85
2021/04/30 00:41:18;;;;;;;14.18;10.50;;;;;;;6.08;83.77;92460.78;2097991;28;20025;-84
2021/04/30 00:42:19;;;;;;;14.02;10.63;;;;;;;5.96;83.62;92460.16;2098059;28;20051;-84
2021/04/30 00:43:19;;;;;;;15.50;11.20;;;;;;;6.04;83.41;92458.16;2097950;28;20016;-84
2021/04/30 00:44:20;;;;;;;13.80;10.75;;;;;;;5.95;84.55;92463.97;2092312;28;20025;-84
2021/04/30 00:45:23;;;;;;;13.30;10.35;;;;;;;6.02;84.36;92460.50;2090908;28;20028;-84
2021/04/30 00:46:24;;;;;;;15.93;11.43;;;;;;;5.97;83.30;92460.91;2103485;28;20480;-84
2021/04/30 00:47:34;;;;;;;15.57;10.95;;;;;;;5.91;84.67;92463.25;2097960;28;20021;-84
2021/04/30 00:48:35;;;;;;;16.23;11.32;;;;;;;5.93;83.89;92466.28;2092088;28;20063;-85
2021/04/30 00:49:35;;;;;;;12.93;10.32;;;;;;;5.98;84.62;92473.06;2097953;28;20081;-84
2021/04/30 00:50:37;;;;;;;14.00;10.27;;;;;;;5.87;85.13;92470.50;2097693;28;20028;-84
2021/04/30 00:51:37;;;;;;;14.65;10.00;;;;;;;5.88;85.72;92474.66;2089660;28;20111;-84
2021/04/30 00:52:39;;;;;;;15.05;10.15;;;;;;;5.92;85.50;92466.69;2089484;28;20465;-84
2021/04/30 00:53:40;;;;;;;13.07;10.75;;;;;;;5.91;85.25;92468.56;2105246;28;20032;-83
2021/04/30 00:54:40;;;;;;;14.45;11.25;;;;;;;5.89;84.70;92465.56;2098044;28;20032;-84
2021/04/30 00:55:41;;;;;;;17.52;11.40;;;;;;;5.89;83.32;92462.91;2089393;28;20025;-84
2021/04/30 00:56:42;;;;;;;15.02;11.57;;;;;;;5.89;84.41;92462.91;2089730;28;20021;-84
2021/04/30 00:57:53;;;;;;;19.42;11.07;;;;;;;5.91;83.70;92465.16;2097166;28;20020;-84
2021/04/30 00:58:53;;;;;;;15.57;10.85;;;;;;;5.92;83.54;92464.78;2091481;28;20119;-85
2021/04/30 00:59:54;;;;;;;14.60;10.35;;;;;;;5.87;83.57;92461.81;2089685;28;20500;-84
2021/04/30 01:00:55;;;;;;;16.55;10.85;;;;;;;5.97;83.89;92459.03;2099488;28;20070;-84
2021/04/30 01:01:56;;;;;;;14.73;10.30;;;;;;;5.93;83.19;92476.91;2112624;28;20533;-84
2021/04/30 01:02:57;;;;;;;18.45;11.35;;;;;;;5.92;84.14;92480.69;2097842;28;20028;-84
2021/04/30 01:03:57;;;;;;;16.23;11.25;;;;;;;5.93;83.00;92490.16;2093370;28;20048;-84
2021/04/30 01:05:00;;;;;;;14.30;10.88;;;;;;;5.90;83.08;92487.53;2099219;28;20044;-84
2021/04/30 01:06:01;;;;;;;16.83;11.45;;;;;;;5.86;83.74;92479.63;2097736;28;20027;-85
2021/04/30 01:07:02;;;;;;;16.77;12.10;;;;;;;5.82;85.12;92478.91;2089502;28;20382;-84
2021/04/30 01:08:03;;;;;;;13.90;11.30;;;;;;;5.87;85.45;92467.84;2097729;28;20044;-83
2021/04/30 01:09:05;;;;;;;14.07;11.20;;;;;;;5.94;86.26;92454.53;2089191;28;20067;-84
2021/04/30 01:10:06;;;;;;;17.40;12.25;;;;;;;5.92;86.71;92464.78;2080909;28;20424;-84
2021/04/30 01:11:07;;;;;;;15.48;11.73;;;;;;;5.85;85.79;92464.13;2096985;28;20040;-84
2021/04/30 01:12:09;;;;;;;19.20;12.02;;;;;;;5.79;86.64;92474.41;2097790;28;20021;-84
2021/04/30 01:13:12;;;;;;;18.27;11.85;;;;;;;5.82;86.49;92463.00;2106339;28;20575;-83
2021/04/30 01:14:13;;;;;;;14.30;11.70;;;;;;;5.74;86.42;92465.00;2102384;28;20031;-84
2021/04/30 01:15:15;;;;;;;18.25;12.68;;;;;;;5.72;87.09;92469.97;2105330;28;20020;-83
2021/04/30 01:16:16;;;;;;;16.40;12.88;;;;;;;5.69;87.00;92470.00;2102657;28;20068;-84
2021/04/30 01:17:17;;;;;;;17.23;12.93;;;;;;;5.65;89.05;92480.66;2090360;28;20102;-84
2021/04/30 01:18:18;;;;;;;15.73;12.45;;;;;;;5.63;87.05;92475.03;2097797;28;20028;-84
2021/04/30 01:19:20;;;;;;;16.27;12.30;;;;;;;5.56;87.18;92465.25;2102697;28;20135;-85
2021/04/30 01:20:21;;;;;;;17.10;12.88;;;;;;;5.64;87.54;92457.97;2105998;28;20035;-84
2021/04/30 01:21:24;;;;;;;19.90;13.75;;;;;;;5.73;89.03;92457.47;2096484;28;20485;-84
2021/04/30 01:22:38;;;;;;;17.73;12.45;;;;;;;5.67;89.61;92465.13;2105891;27;20442;-85
2021/04/30 01:23:48;;;;;;;18.90;12.65;;;;;;;5.78;88.35;92468.38;2106775;28;20115;-85
2021/04/30 01:24:49;;;;;;;21.83;13.32;;;;;;;5.75;88.23;92473.72;2094405;27;20037;-84
2021/04/30 01:25:49;;;;;;;17.60;12.80;;;;;;;5.66;88.39;92484.06;2106048;28;20507;-85
2021/04/30 01:26:51;;;;;;;20.65;14.32;;;;;;;5.71;87.95;92484.38;2104281;28;20020;-85
2021/04/30 01:27:53;;;;;;;17.85;13.35;;;;;;;5.67;89.36;92483.69;2105869;28;20480;-84
2021/04/30 01:28:54;;;;;;;18.98;14.38;;;;;;;5.64;89.05;92481.06;2097558;28;20111;-85
2021/04/30 01:29:54;;;;;;;18.45;13.73;;;;;;;5.71;89.33;92475.69;2097530;28;20024;-84
2021/04/30 01:30:55;;;;;;;19.23;13.10;;;;;;;5.73;88.87;92470.72;2097448;28;20035;-85
2021/04/30 01:31:56;;;;;;;16.58;13.27;;;;;;;5.77;89.21;92463.47;2101883;28;20043;-84
2021/04/30 01:32:57;;;;;;;22.15;13.55;;;;;;;5.71;89.31;92463.19;2114203;28;20039;-85
2021/04/30 01:33:58;;;;;;;19.15;13.93;;;;;;;5.65;89.47;92466.66;2113453;28;20027;-85
2021/04/30 01:34:58;;;;;;;20.77;14.73;;;;;;;5.59;89.46;92463.72;2105807;28;20028;-85
2021/04/30 01:36:00;;;;;;;20.63;14.65;;;;;;;5.66;89.62;92460.94;2105922;28;20115;-85
2021/04/30 01:37:00;;;;;;;18.20;14.48;;;;;;;5.50;89.52;92464.22;2097575;28;20017;-85
2021/04/30 01:38:04;;;;;;;17.80;14.35;;;;;;;5.50;90.58;92458.16;2094215;28;20017;-84
2021/04/30 01:39:08;;;;;;;20.25;15.00;;;;;;;5.42;89.76;92457.50;2106280;28;20016;-85
2021/04/30 01:40:20;;;;;;;18.75;15.13;;;;;;;5.41;90.46;92457.91;2105908;28;20516;-85
2021/04/30 01:41:22;;;;;;;19.23;14.00;;;;;;;5.45;90.15;92458.63;2092202;28;20059;-84
2021/04/30 01:42:23;;;;;;;20.40;15.32;;;;;;;5.40;90.32;92462.47;2101056;28;20020;-84
2021/04/30 01:43:25;;;;;;;19.65;14.55;;;;;;;5.44;90.24;92463.13;2097389;28;20036;-84
2021/04/30 01:44:26;;;;;;;20.27;14.48;;;;;;;5.41;90.85;92458.66;2106060;27;20101;-84
2021/04/30 01:45:33;;;;;;;21.95;15.05;;;;;;;5.42;91.66;92464.69;2105548;28;20058;-84
2021/04/30 01:46:35;;;;;;;19.02;14.23;;;;;;;5.46;90.55;92471.47;2113325;28;20483;-84
2021/04/30 01:47:36;;;;;;;22.70;15.02;;;;;;;5.38;91.31;92464.00;2105364;28;20432;-84
2021/04/30 01:48:36;;;;;;;21.92;14.85;;;;;;;5.42;91.55;92470.00;2092806;28;20025;-84
2021/04/30 01:49:37;;;;;;;22.58;15.30;;;;;;;5.39;92.17;92465.50;2088966;28;20028;-84
2021/04/30 01:50:38;;;;;;;18.52;14.43;;;;;;;5.46;91.53;92482.06;2089051;28;20044;-84
2021/04/30 01:51:39;;;;;;;19.88;14.68;;;;;;;5.48;92.32;92471.78;2085390;28;20036;-83
2021/04/30 01:52:39;;;;;;;20.48;14.82;;;;;;;5.46;90.31;92468.81;2101102;28;20500;-84
2021/04/30 01:53:41;;;;;;;19.00;14.90;;;;;;;5.46;90.83;92471.47;2104304;28;20028;-85
2021/04/30 01:54:48;;;;;;;19.35;14.68;;;;;;;5.56;89.92;92467.91;2097507;28;20020;-84
2021/04/30 01:55:49;;;;;;;20.98;14.90;;;;;;;5.44;89.08;92463.13;2090808;28;20024;-84
2021/04/30 01:56:50;;;;;;;20.13;14.52;;;;;;;5.39;90.85;92465.50;2088726;28;20033;-84
2021/04/30 01:57:51;;;;;;;19.70;15.38;;;;;;;5.40;91.91;92465.09;2094178;28;20107;-83
2021/04/30 01:58:51;;;;;;;20.55;16.00;;;;;;;5.43;92.12;92466.94;2095459;28;20061;-84
2021/04/30 01:59:52;;;;;;;22.85;14.77;;;;;;;5.43;92.12;92466.19;2090534;28;20562;-84
2021/04/30 02:00:55;;;;;;;22.08;15.68;;;;;;;5.47;92.50;92475.59;2099486;28;20036;-84
2021/04/30 02:01:57;;;;;;;21.42;14.70;;;;;;;5.39;91.22;92481.38;2103682;28;20023;-84
2021/04/30 02:04:53;;;;;;;23.63;14.15;;;;;;;5.46;90.26;92490.00;2139269;27;20173;-88
2021/04/30 02:05:54;;;;;;;22.23;15.40;;;;;;;5.44;90.94;92502.88;2130311;27;20098;-86
2021/04/30 02:06:54;;;;;;;22.05;16.27;;;;;;;5.42;90.38;92491.94;2121804;27;20106;-86
2021/04/30 02:08:06;;;;;;;23.38;15.77;;;;;;;5.42;91.41;92497.25;2121732;28;20113;-85
2021/04/30 02:09:08;;;;;;;21.95;16.23;;;;;;;5.43;93.29;92500.66;2130092;27;20027;-85
2021/04/30 02:10:23;;;;;;;24.35;16.15;;;;;;;5.35;93.87;92499.22;2107392;28;20019;-86
2021/04/30 02:11:23;;;;;;;22.70;15.70;;;;;;;5.39;91.92;92495.38;2103520;28;20127;-86
2021/04/30 02:12:24;;;;;;;20.15;16.25;;;;;;;5.33;92.84;92494.34;2097285;28;20028;-84
2021/04/30 02:13:25;;;;;;;22.92;16.60;;;;;;;5.45;93.25;92495.72;2099149;28;20032;-86
2021/04/30 02:14:25;;;;;;;25.92;16.30;;;;;;;5.58;92.78;92487.97;2098855;28;20048;-85
2021/04/30 02:15:30;;;;;;;23.20;15.30;;;;;;;5.54;93.74;92483.47;2099464;28;20090;-88
2021/04/30 02:16:32;;;;;;;23.33;16.48;;;;;;;5.50;93.76;92474.81;2106880;28;20035;-87
2021/04/30 02:17:33;;;;;;;19.73;14.63;;;;;;;5.49;93.95;92473.31;2120800;27;20027;-87
2021/04/30 02:18:34;;;;;;;18.80;14.52;;;;;;;5.44;94.39;92465.03;2121675;28;20455;-83
2021/04/30 02:19:34;;;;;;;19.73;14.38;;;;;;;5.48;94.61;92466.50;2105243;28;20021;-87
2021/04/30 02:20:35;;;;;;;19.17;14.60;;;;;;;5.50;94.86;92461.56;2099712;28;20090;-84
2021/04/30 02:21:36;;;;;;;18.80;14.65;;;;;;;5.51;95.88;92464.97;2121531;27;20015;-85
2021/04/30 02:22:37;;;;;;;20.15;14.55;;;;;;;5.51;95.35;92468.34;2121347;28;20106;-84
2021/04/30 02:23:38;;;;;;;19.80;15.07;;;;;;;5.49;95.85;92468.03;2112972;28;20031;-86
2021/04/30 02:24:40;;;;;;;18.15;14.63;;;;;;;5.49;96.12;92470.66;2112993;28;20035;-84
2021/04/30 02:25:41;;;;;;;24.67;13.77;;;;;;;5.64;95.94;92460.63;2105061;28;20024;-82
2021/04/30 02:26:42;;;;;;;22.75;14.70;;;;;;;5.42;96.06;92449.53;2104518;28;20020;-86
2021/04/30 02:27:44;;;;;;;22.25;14.57;;;;;;;5.53;96.16;92439.56;2104669;28;20059;-87
2021/04/30 02:28:45;;;;;;;20.17;13.95;;;;;;;5.45;96.53;92438.16;2096755;28;20087;-83
2021/04/30 02:29:46;;;;;;;21.52;14.15;;;;;;;5.47;96.45;92446.44;2096532;28;20025;-86
2021/04/30 02:30:47;;;;;;;21.33;14.23;;;;;;;5.34;96.83;92440.19;2104777;28;20107;-84
2021/04/30 02:31:47;;;;;;;19.38;14.25;;;;;;;5.42;96.79;92441.59;2104713;28;20404;-84
2021/04/30 02:32:49;;;;;;;20.80;14.90;;;;;;;5.29;95.40;92449.34;2104850;28;20462;-84
2021/04/30 02:33:50;;;;;;;22.42;15.32;;;;;;;5.24;96.38;92446.38;2104820;28;20016;-84
2021/04/30 02:34:54;;;;;;;21.10;14.88;;;;;;;5.22;96.20;92443.38;2113019;28;20439;-82
2021/04/30 02:35:55;;;;;;;19.63;14.85;;;;;;;5.16;96.03;92443.06;2113475;28;20130;-85
2021/04/30 02:36:55;;;;;;;20.27;15.65;;;;;;;5.13;96.24;92456.34;2123383;28;20019;-84
2021/04/30 02:37:57;;;;;;;19.10;15.15;;;;;;;5.13;97.43;92459.00;2100451;28;20029;-84
2021/04/30 02:38:58;;;;;;;19.15;14.77;;;;;;;5.10;98.27;92465.84;2107328;28;20025;-83
2021/04/30 02:39:59;;;;;;;24.25;15.95;;;;;;;5.04;98.99;92465.53;2103822;28;20021;-83
2021/04/30 02:41:00;;;;;;;21.45;15.73;;;;;;;5.13;98.70;92459.00;2124070;28;20030;-83
2021/04/30 02:42:01;;;;;;;23.13;16.23;;;;;;;5.03;98.89;92458.72;2122189;28;20030;-84
2021/04/30 02:43:05;;;;;;;21.17;15.32;;;;;;;5.10;97.76;92459.81;2111230;28;20050;-84
2021/04/30 02:44:06;;;;;;;19.88;14.55;;;;;;;5.22;97.05;92456.59;2116965;28;20092;-85
2021/04/30 02:45:09;;;;;;;18.15;15.50;;;;;;;5.22;97.33;92453.97;2108364;28;20066;-81
2021/04/30 02:46:09;;;;;;;21.65;16.00;;;;;;;5.08;97.23;92452.25;2109079;28;20468;-83
2021/04/30 02:47:12;;;;;;;21.92;15.98;;;;;;;5.02;96.65;92454.59;2116501;28;20019;-85
2021/04/30 02:48:14;;;;;;;19.85;15.95;;;;;;;4.99;96.82;92449.31;2108833;28;20024;-83
2021/04/30 02:49:17;;;;;;;25.35;16.65;;;;;;;4.92;97.93;92446.78;2108334;28;20024;-85
2021/04/30 02:50:20;;;;;;;21.58;15.77;;;;;;;4.81;97.80;92438.94;2104771;28;20020;-86
2021/04/30 02:51:21;;;;;;;20.45;15.40;;;;;;;4.95;97.62;92440.66;2121938;27;20031;-85
2021/04/30 02:52:22;;;;;;;21.40;16.90;;;;;;;5.00;98.05;92445.53;2121632;28;20428;-84
2021/04/30 02:53:23;;;;;;;20.25;15.60;;;;;;;4.87;97.52;92450.59;2113112;28;20177;-84
2021/04/30 02:54:24;;;;;;;21.98;16.38;;;;;;;4.84;97.25;92448.75;2104622;28;20021;-84
2021/04/30 02:55:25;;;;;;;25.20;16.60;;;;;;;4.92;97.93;92452.81;2104459;28;20035;-86
2021/04/30 02:56:26;;;;;;;23.38;16.38;;;;;;;5.03;97.04;92439.44;2113071;28;20028;-86
2021/04/30 02:57:32;;;;;;;23.17;17.05;;;;;;;5.00;97.53;92448.94;2112999;28;20024;-85
2021/04/30 02:58:33;;;;;;;22.33;16.35;;;;;;;4.99;98.09;92454.63;2112692;28;20024;-86
2021/04/30 02:59:33;;;;;;;20.80;15.63;;;;;;;4.88;96.17;92462.69;2102514;28;20106;-87
2021/04/30 03:00:34;;;;;;;24.67;16.27;;;;;;;4.83;94.55;92465.78;2112820;28;20102;-85
2021/04/30 03:01:35;;;;;;;18.27;15.73;;;;;;;4.82;95.22;92455.56;2121146;28;20022;-82
2021/04/30 03:02:35;;;;;;;22.95;15.65;;;;;;;4.94;96.33;92463.75;2113533;28;20019;-86
2021/04/30 03:03:36;;;;;;;18.20;15.27;;;;;;;4.91;95.01;92451.28;2113031;28;20051;-85
2021/04/30 03:04:37;;;;;;;20.65;14.93;;;;;;;4.90;95.60;92468.34;2104178;28;20052;-85
2021/04/30 03:05:38;;;;;;;23.10;16.77;;;;;;;4.80;95.07;92464.66;2104383;28;20059;-85
2021/04/30 03:06:38;;;;;;;19.65;14.93;;;;;;;4.73;94.81;92466.63;2113118;28;20066;-86
2021/04/30 03:07:39;;;;;;;22.77;16.73;;;;;;;4.70;96.56;92462.13;2112567;28;20024;-85
2021/04/30 03:08:40;;;;;;;21.38;15.45;;;;;;;4.60;95.99;92468.28;2095951;28;20033;-84
2021/04/30 03:09:40;;;;;;;22.33;15.90;;;;;;;4.45;95.51;92467.66;2104553;28;20070;-84
2021/04/30 03:10:41;;;;;;;22.05;15.05;;;;;;;4.48;96.07;92466.88;2104259;28;20028;-86
2021/04/30 03:11:42;;;;;;;19.27;16.08;;;;;;;4.51;95.85;92469.47;2096017;28;20094;-83
2021/04/30 03:12:43;;;;;;;21.05;16.90;;;;;;;4.59;96.55;92459.59;2095946;28;20031;-83
2021/04/30 03:13:44;;;;;;;20.88;16.33;;;;;;;4.54;96.85;92470.59;2104634;28;20560;-85
2021/04/30 03:14:45;;;;;;;21.15;16.55;;;;;;;4.56;97.18;92465.66;2104065;28;20063;-84
2021/04/30 03:15:46;;;;;;;23.75;17.02;;;;;;;4.65;96.92;92468.59;2093239;28;20025;-84
2021/04/30 03:16:46;;;;;;;21.92;17.80;;;;;;;4.63;97.24;92470.88;2094641;28;20526;-84
2021/04/30 03:17:47;;;;;;;22.25;17.20;;;;;;;4.70;97.46;92456.84;2090575;28;20048;-87
2021/04/30 03:18:48;;;;;;;19.48;16.25;;;;;;;4.74;97.13;92462.81;2090557;28;20083;-85
2021/04/30 03:19:49;;;;;;;20.92;16.65;;;;;;;4.59;95.93;92461.47;2104082;28;20039;-83
2021/04/30 03:20:49;;;;;;;19.63;16.08;;;;;;;4.66;95.95;92466.72;2115519;28;20026;-86
2021/04/30 03:21:50;;;;;;;23.00;17.25;;;;;;;4.60;96.47;92465.63;2115598;28;20027;-82
2021/04/30 03:22:51;;;;;;;23.63;17.35;;;;;;;4.50;97.33;92457.41;2106947;28;20607;-81
2021/04/30 03:23:52;;;;;;;21.90;17.50;;;;;;;4.58;98.34;92460.00;2098745;28;20028;-83
2021/04/30 03:24:52;;;;;;;24.75;17.95;;;;;;;4.62;98.78;92461.44;2098535;28;20024;-84
2021/04/30 03:25:53;;;;;;;23.88;17.83;;;;;;;4.53;98.83;92461.91;2107136;28;20361;-87
2021/04/30 03:26:54;;;;;;;21.55;17.27;;;;;;;4.61;99.64;92462.59;2115956;28;20020;-86
2021/04/30 03:27:54;;;;;;;22.52;18.08;;;;;;;4.56;99.02;92468.31;2115143;28;20066;-84
2021/04/30 03:28:55;;;;;;;22.70;16.98;;;;;;;4.55;98.96;92467.56;2106508;28;20085;-84
2021/04/30 03:29:56;;;;;;;21.17;17.67;;;;;;;4.57;98.00;92466.44;2104539;28;20024;-84
2021/04/30 03:30:57;;;;;;;22.67;18.17;;;;;;;4.50;97.08;92464.59;2106985;28;20028;-86
2021/04/30 03:31:58;;;;;;;23.48;17.85;;;;;;;4.51;97.16;92464.19;2090426;28;20094;-85
2021/04/30 03:32:58;;;;;;;23.88;17.92;;;;;;;4.45;97.87;92463.13;2098666;28;20028;-86
2021/04/30 03:33:59;;;;;;;24.20;16.65;;;;;;;4.57;97.51;92467.19;2098576;28;20020;-83
2021/04/30 03:35:00;;;;;;;23.95;17.30;;;;;;;4.58;97.87;92460.00;2098480;28;20107;-85
2021/04/30 03:36:01;;;;;;;22.70;17.58;;;;;;;4.51;98.35;92464.19;2098540;28;20047;-86
2021/04/30 03:37:02;;;;;;;22.10;17.52;;;;;;;4.48;98.90;92465.00;2090331;28;20029;-84
2021/04/30 03:38:04;;;;;;;22.33;17.85;;;;;;;4.44;98.75;92458.22;2099055;28;20024;-87
2021/04/30 03:39:06;;;;;;;21.92;17.52;;;;;;;4.53;99.51;92456.63;2098791;28;20021;-83
2021/04/30 03:40:08;;;;;;;25.63;18.48;;;;;;;4.57;99.66;92458.50;2090537;28;20029;-83
2021/04/30 03:41:08;;;;;;;23.25;17.27;;;;;;;4.63;98.66;92459.56;2106881;28;20016;-87
2021/04/30 03:42:09;;;;;;;23.27;17.52;;;;;;;4.57;98.63;92469.06;2106956;28;20522;-83
2021/04/30 03:43:10;;;;;;;26.08;17.52;;;;;;;4.63;98.87;92456.91;2115272;28;20110;-82
2021/04/30 03:44:10;;;;;;;21.95;18.50;;;;;;;4.46;98.77;92459.31;2106794;28;20032;-84
2021/04/30 03:45:13;;;;;;;20.88;16.95;;;;;;;4.45;98.19;92463.13;2090347;28;20394;-85
2021/04/30 03:46:14;;;;;;;22.48;18.10;;;;;;;4.53;99.11;92466.47;2098857;28;20025;-85
2021/04/30 03:47:14;;;;;;;21.77;17.35;;;;;;;4.52;97.68;92465.72;2106937;28;20020;-87
2021/04/30 03:48:15;;;;;;;22.42;18.05;;;;;;;4.52;98.36;92457.00;2098594;28;20043;-84
2021/04/30 03:49:16;;;;;;;21.60;17.92;;;;;;;4.64;98.79;92453.84;2098579;28;20024;-83
2021/04/30 03:50:16;;;;;;;24.75;18.40;;;;;;;4.63;98.93;92454.25;2090195;28;20501;-84
2021/04/30 03:51:18;;;;;;;24.27;17.90;;;;;;;4.46;97.39;92451.38;2098495;28;20024;-84
2021/04/30 03:52:18;;;;;;;22.33;19.10;;;;;;;4.53;98.01;92455.88;2107003;28;20422;-84
2021/04/30 03:53:21;;;;;;;22.88;18.33;;;;;;;4.51;97.91;92456.25;2106973;28;20088;-85
2021/04/30 03:54:21;;;;;;;25.92;18.35;;;;;;;4.42;97.09;92450.66;2106960;28;20022;-84
2021/04/30 03:55:22;;;;;;;22.98;17.73;;;;;;;4.40;95.01;92458.25;2098601;28;20079;-84
2021/04/30 03:56:23;;;;;;;21.13;18.25;;;;;;;4.48;95.43;92457.06;2098651;28;20484;-84
2021/04/30 03:57:23;;;;;;;19.90;17.38;;;;;;;4.49;95.29;92453.25;2098564;28;20017;-85
2021/04/30 03:58:24;;;;;;;22.58;18.63;;;;;;;4.50;97.38;92451.34;2098475;28;20021;-86
2021/04/30 03:59:25;;;;;;;22.55;19.35;;;;;;;4.62;98.54;92458.06;2106721;28;20019;-82
2021/04/30 04:00:26;;;;;;;24.00;18.75;;;;;;;4.45;98.10;92455.19;2106923;28;20024;-82
2021/04/30 04:01:26;;;;;;;22.38;18.95;;;;;;;4.53;98.80;92450.59;2110530;28;20464;-86
2021/04/30 04:02:27;;;;;;;22.83;18.83;;;;;;;4.47;99.75;92447.59;2098568;28;20496;-85
2021/04/30 04:03:28;;;;;;;22.40;18.63;;;;;;;4.70;99.44;92448.91;2106908;28;20426;-82
2021/04/30 04:04:29;;;;;;;25.05;18.33;;;;;;;4.85;97.74;92452.13;2106473;28;20040;-84
2021/04/30 04:05:29;;;;;;;22.65;18.02;;;;;;;4.60;93.85;92449.75;2098520;28;20046;-83
2021/04/30 04:06:30;;;;;;;22.40;17.92;;;;;;;4.45;93.82;92443.84;2090311;28;20036;-85
2021/04/30 04:07:31;;;;;;;23.17;18.98;;;;;;;4.44;94.41;92442.34;2098413;28;20559;-84
2021/04/30 04:08:32;;;;;;;21.60;17.73;;;;;;;4.49;95.62;92445.31;2090165;28;20053;-84
2021/04/30 04:09:32;;;;;;;22.75;18.63;;;;;;;4.58;95.60;92444.09;2090157;28;20752;-85
2021/04/30 04:10:33;;;;;;;23.15;18.60;;;;;;;4.58;96.74;92441.47;2098005;28;20016;-85
2021/04/30 04:11:34;;;;;;;21.60;18.60;;;;;;;4.59;96.79;92442.97;2106808;28;20055;-84
2021/04/30 04:12:34;;;;;;;24.65;18.73;;;;;;;4.53;96.02;92437.34;2098283;28;20016;-84
2021/04/30 04:13:36;;;;;;;21.70;18.67;;;;;;;4.44;95.43;92435.16;2098403;28;20036;-85
2021/04/30 04:14:37;;;;;;;22.63;19.63;;;;;;;4.37;96.35;92439.78;2098560;28;20111;-86
2021/04/30 04:15:37;;;;;;;21.88;18.75;;;;;;;4.39;96.89;92440.88;2098333;28;20021;-83
2021/04/30 04:16:38;;;;;;;24.08;19.25;;;;;;;4.49;96.51;92445.31;2101346;28;20047;-87
2021/04/30 04:17:39;;;;;;;23.67;19.20;;;;;;;4.50;96.68;92440.78;2115202;28;20028;-85
2021/04/30 04:18:40;;;;;;;22.75;19.25;;;;;;;4.51;97.28;92440.38;2115296;28;20357;-83
2021/04/30 04:19:40;;;;;;;24.35;19.77;;;;;;;4.54;97.12;92431.66;2098283;28;20028;-84
2021/04/30 04:20:41;;;;;;;24.70;19.17;;;;;;;4.57;98.04;92437.31;2090067;28;20060;-84
2021/04/30 04:21:42;;;;;;;24.17;19.38;;;;;;;4.47;97.85;92439.66;2098369;28;20047;-83
2021/04/30 04:22:42;;;;;;;25.35;19.30;;;;;;;4.39;98.47;92453.34;2097997;28;20056;-86
2021/04/30 04:23:43;;;;;;;24.08;18.90;;;;;;;4.52;98.12;92443.75;2106538;28;20055;-83
2021/04/30 04:24:45;;;;;;;24.88;18.35;;;;;;;4.49;97.55;92455.16;2098307;28;20035;-85
2021/04/30 04:25:46;;;;;;;24.92;19.33;;;;;;;4.51;98.42;92445.66;2103384;28;20045;-84
2021/04/30 04:26:47;;;;;;;23.35;19.38;;;;;;;4.49;97.66;92449.88;2098184;28;20114;-84
2021/04/30 04:27:47;;;;;;;24.98;19.35;;;;;;;4.44;98.03;92452.94;2097285;28;20602;-85
2021/04/30 04:28:48;;;;;;;26.33;18.58;;;;;;;4.39;97.89;92445.41;2094977;28;20087;-83
2021/04/30 04:29:49;;;;;;;21.15;18.73;;;;;;;4.28;97.12;92448.16;2098191;28;20020;-85
2021/04/30 04:30:52;;;;;;;24.92;19.27;;;;;;;4.32;95.95;92454.19;2106647;28;20024;-84
2021/04/30 04:31:53;;;;;;;22.45;19.25;;;;;;;4.32;97.50;92453.44;2106542;28;20024;-83
2021/04/30 04:32:54;;;;;;;23.13;20.60;;;;;;;4.45;98.29;92449.88;2089974;28;20051;-83
2021/04/30 04:33:55;;;;;;;24.75;20.67;;;;;;;4.47;98.70;92442.31;2098236;28;20094;-82
2021/04/30 04:34:55;;;;;;;27.35;20.90;;;;;;;4.41;98.79;92443.88;2097758;28;20021;-84
2021/04/30 04:35:56;;;;;;;27.30;21.50;;;;;;;4.34;98.64;92436.00;2089703;28;20029;-84
2021/04/30 04:36:57;;;;;;;26.20;22.77;;;;;;;4.38;98.75;92441.25;2098199;28;20539;-84
2021/04/30 04:37:57;;;;;;;24.95;20.95;;;;;;;4.41;98.74;92441.22;2098204;28;20373;-84
2021/04/30 04:38:58;;;;;;;26.00;20.15;;;;;;;4.31;97.54;92433.41;2098312;28;20039;-84
2021/04/30 04:39:59;;;;;;;24.83;19.95;;;;;;;4.38;97.49;92438.63;2098197;28;20020;-86
2021/04/30 04:41:00;;;;;;;27.33;20.48;;;;;;;4.40;97.22;92420.47;2089795;28;20017;-85
2021/04/30 04:42:03;;;;;;;22.95;19.33;;;;;;;4.45;97.82;92435.91;2098095;28;20066;-83
2021/04/30 04:43:03;;;;;;;24.70;19.73;;;;;;;4.45;98.45;92434.00;2106483;28;20526;-86
2021/04/30 04:44:04;;;;;;;25.98;20.70;;;;;;;4.44;98.82;92434.41;2096822;28;20070;-86
2021/04/30 04:45:06;;;;;;;24.13;20.08;;;;;;;4.49;97.70;92432.09;2114836;28;20027;-84
2021/04/30 04:46:07;;;;;;;25.55;19.15;;;;;;;4.41;97.52;92437.84;2098089;28;20024;-85
2021/04/30 04:47:07;;;;;;;22.50;19.45;;;;;;;4.45;96.21;92431.38;2098022;28;20020;-85
2021/04/30 04:48:08;;;;;;;24.00;19.77;;;;;;;4.34;95.71;92430.72;2106555;28;20085;-81